createdAt,value
2023-01-19T00:00:26.914Z,17.50
2023-01-19T00:02:55.063Z,14.23
2023-01-19T00:05:22.031Z,15.43
2023-01-19T00:07:48.567Z,12.50
2023-01-19T00:10:15.447Z,14.63
2023-01-19T00:12:41.910Z,13.40
2023-01-19T00:15:08.964Z,14.20
2023-01-19T00:20:01.966Z,15.20
2023-01-19T00:22:28.789Z,11.23
2023-01-19T00:24:55.546Z,13.65
2023-01-19T00:27:21.966Z,14.35
2023-01-19T00:29:48.651Z,11.82
2023-01-19T00:32:17.715Z,11.73
2023-01-19T00:34:49.636Z,11.30
2023-01-19T00:37:17.324Z,13.10
2023-01-19T00:39:44.080Z,12.65
2023-01-19T00:42:33.378Z,12.25
2023-01-19T00:45:00.271Z,12.63
2023-01-19T00:47:26.826Z,13.68
2023-01-19T00:49:53.862Z,13.68
2023-01-19T00:57:15.615Z,9.90
2023-01-19T00:59:42.487Z,11.68
2023-01-19T01:02:09.588Z,11.57
2023-01-19T01:04:36.163Z,13.23
2023-01-19T01:07:03.110Z,12.27
2023-01-19T01:09:30.105Z,10.45
2023-01-19T01:11:56.762Z,11.95
2023-01-19T01:14:24.145Z,12.23
2023-01-19T01:16:50.912Z,13.18
2023-01-19T01:19:17.543Z,11.52
2023-01-19T01:21:43.985Z,12.18
2023-01-19T01:24:10.840Z,11.82
2023-01-19T01:26:37.287Z,13.18
2023-01-19T01:29:06.323Z,14.38
2023-01-19T01:31:32.788Z,11.13
2023-01-19T01:34:02.458Z,13.70
2023-01-19T01:36:32.095Z,13.80
2023-01-19T01:38:59.379Z,13.07
2023-01-19T01:41:27.402Z,12.85
2023-01-19T01:43:58.774Z,11.93
2023-01-19T01:46:28.537Z,12.82
2023-01-19T01:49:16.778Z,12.00
2023-01-19T01:51:50.901Z,12.85
2023-01-19T01:54:23.156Z,13.32
2023-01-19T01:56:52.668Z,14.77
2023-01-19T01:59:27.986Z,12.77
2023-01-19T02:02:20.884Z,14.52
2023-01-19T02:04:52.307Z,13.30
2023-01-19T02:08:13.646Z,13.63
2023-01-19T02:11:00.703Z,11.95
2023-01-19T02:13:29.563Z,11.68
2023-01-19T02:16:01.519Z,13.32
2023-01-19T02:18:30.875Z,12.63
2023-01-19T02:21:12.591Z,13.02
2023-01-19T02:23:40.702Z,11.68
2023-01-19T02:26:09.918Z,11.65
2023-01-19T02:28:43.678Z,11.73
2023-01-19T02:31:10.646Z,12.38
2023-01-19T02:33:37.368Z,13.63
2023-01-19T02:36:06.071Z,11.25
2023-01-19T02:38:32.915Z,12.57
2023-01-19T02:41:04.752Z,11.50
2023-01-19T02:43:33.289Z,11.40
2023-01-19T02:46:00.335Z,13.07
2023-01-19T02:48:26.783Z,12.48
2023-01-19T02:51:04.210Z,11.48
2023-01-19T02:53:42.628Z,12.80
2023-01-19T02:56:29.876Z,9.50
2023-01-19T02:59:17.738Z,11.63
2023-01-19T03:02:26.655Z,12.02
2023-01-19T03:05:11.843Z,11.13
2023-01-19T03:08:04.713Z,12.80
2023-01-19T03:10:56.803Z,12.13
2023-01-19T03:13:39.481Z,13.30
2023-01-19T03:16:14.114Z,10.20
2023-01-19T03:18:45.251Z,10.80
2023-01-19T03:21:14.738Z,13.60
2023-01-19T03:23:45.496Z,11.60
2023-01-19T03:26:17.524Z,10.90
2023-01-19T03:28:47.391Z,12.35
2023-01-19T03:31:17.619Z,11.38
2023-01-19T03:33:50.271Z,10.90
2023-01-19T03:36:25.394Z,13.57
2023-01-19T03:38:53.799Z,12.32
2023-01-19T03:41:24.128Z,12.07
2023-01-19T03:43:53.704Z,10.48
2023-01-19T03:46:22.506Z,11.93
2023-01-19T03:48:49.959Z,11.25
2023-01-19T03:51:17.087Z,12.60
2023-01-19T03:56:17.938Z,12.82
2023-01-19T03:58:45.267Z,12.15
2023-01-19T04:01:12.338Z,13.13
2023-01-19T04:06:05.547Z,13.77
2023-01-19T04:08:32.558Z,13.75
2023-01-19T04:10:59.184Z,10.30
2023-01-19T04:13:28.132Z,13.15
2023-01-19T04:15:55.111Z,14.27
2023-01-19T04:20:48.023Z,13.50
2023-01-19T04:23:14.982Z,13.63
2023-01-19T04:28:09.275Z,12.20
2023-01-19T04:30:35.889Z,13.15
2023-01-19T04:33:03.219Z,14.23
2023-01-19T04:35:30.209Z,11.35
2023-01-19T04:37:56.719Z,11.82
2023-01-19T04:40:23.545Z,11.60
2023-01-19T04:42:51.005Z,13.68
2023-01-19T04:45:17.492Z,13.52
2023-01-19T04:47:43.991Z,11.75
2023-01-19T04:50:11.652Z,12.48
2023-01-19T04:52:38.386Z,11.20
2023-01-19T04:55:06.646Z,11.00
2023-01-19T04:57:33.211Z,12.77
2023-01-19T05:00:00.053Z,11.88
2023-01-19T05:02:26.856Z,12.85
2023-01-19T05:04:53.969Z,14.43
2023-01-19T05:09:46.840Z,14.82
2023-01-19T05:12:13.715Z,14.63
2023-01-19T05:14:40.309Z,15.75
2023-01-19T05:17:07.186Z,14.02
2023-01-19T05:19:33.660Z,14.70
2023-01-19T05:22:01.778Z,15.02
2023-01-19T05:24:28.396Z,13.88
2023-01-19T05:26:55.592Z,16.60
2023-01-19T05:29:22.525Z,12.57
2023-01-19T05:31:49.127Z,12.38
2023-01-19T05:34:15.749Z,13.90
2023-01-19T05:36:42.585Z,12.77
2023-01-19T05:39:09.357Z,15.48
2023-01-19T05:41:36.209Z,15.70
2023-01-19T05:44:02.873Z,15.05
2023-01-19T05:46:29.765Z,15.02
2023-01-19T05:48:56.347Z,13.50
2023-01-19T05:51:22.876Z,14.65
2023-01-19T05:53:49.929Z,16.50
2023-01-19T05:58:42.800Z,14.20
2023-01-19T06:01:10.321Z,18.23
2023-01-19T06:03:39.697Z,15.65
2023-01-19T06:06:06.484Z,15.07
2023-01-19T06:08:33.214Z,14.73
2023-01-19T06:10:59.952Z,14.80
2023-01-19T06:13:26.388Z,14.52
2023-01-19T06:15:57.941Z,14.57
2023-01-19T06:18:24.891Z,15.05
2023-01-19T06:20:52.523Z,14.77
2023-01-19T06:23:21.004Z,15.30
2023-01-19T06:25:49.951Z,15.75
2023-01-19T06:28:16.462Z,15.35
2023-01-19T06:30:43.562Z,15.02
2023-01-19T06:33:10.027Z,15.73
2023-01-19T06:35:36.463Z,15.75
2023-01-19T06:38:03.002Z,14.65
2023-01-19T06:40:30.007Z,14.35
2023-01-19T06:42:56.477Z,14.70
2023-01-19T06:45:23.222Z,17.17
2023-01-19T06:47:50.010Z,14.18
2023-01-19T06:50:16.837Z,14.65
2023-01-19T06:52:43.395Z,17.45
2023-01-19T06:55:11.476Z,15.70
2023-01-19T06:57:39.128Z,14.40
2023-01-19T07:02:36.137Z,13.05
2023-01-19T07:05:02.879Z,11.98
2023-01-19T07:07:29.868Z,14.80
2023-01-19T07:09:56.362Z,13.85
2023-01-19T07:12:23.396Z,16.58
2023-01-19T07:17:16.636Z,12.45
2023-01-19T07:19:43.165Z,13.38
2023-01-19T07:22:10.052Z,12.57
2023-01-19T07:24:37.956Z,12.68
2023-01-19T07:27:05.488Z,14.70
2023-01-19T07:29:32.016Z,14.63
2023-01-19T07:31:58.645Z,14.98
2023-01-19T07:34:25.246Z,13.95
2023-01-19T07:36:51.709Z,14.50
2023-01-19T07:39:18.361Z,15.63
2023-01-19T07:41:45.019Z,13.27
2023-01-19T07:44:11.837Z,15.30
2023-01-19T07:46:38.385Z,15.52
2023-01-19T07:49:08.005Z,13.98
2023-01-19T07:51:35.029Z,15.25
2023-01-19T07:56:39.199Z,13.68
2023-01-19T07:59:07.339Z,13.93
2023-01-19T08:01:37.773Z,16.40
2023-01-19T08:04:04.809Z,15.75
2023-01-19T08:06:37.665Z,13.60
2023-01-19T08:09:13.766Z,13.68
2023-01-19T08:11:40.423Z,16.13
2023-01-19T08:14:08.121Z,16.65
2023-01-19T08:16:35.702Z,14.70
2023-01-19T08:19:03.582Z,15.00
2023-01-19T08:21:30.321Z,15.85
2023-01-19T08:23:57.934Z,16.02
2023-01-19T08:26:31.455Z,14.00
2023-01-19T08:29:00.227Z,15.75
2023-01-19T08:31:27.183Z,14.48
2023-01-19T08:33:53.911Z,12.82
2023-01-19T08:36:22.465Z,15.18
2023-01-19T08:38:49.070Z,12.25
2023-01-19T08:41:18.460Z,13.73
2023-01-19T08:43:45.546Z,13.95
2023-01-19T08:46:12.669Z,15.32
2023-01-19T08:48:40.123Z,14.10
2023-01-19T08:51:06.805Z,13.27
2023-01-19T08:53:34.127Z,16.33
2023-01-19T08:56:01.927Z,17.08
2023-01-19T08:58:28.747Z,13.07
2023-01-19T09:00:56.132Z,15.18
2023-01-19T09:03:23.010Z,14.10
2023-01-19T09:05:50.348Z,16.85
2023-01-19T09:08:17.072Z,13.18
2023-01-19T09:10:49.910Z,15.52
2023-01-19T09:13:17.371Z,14.50
2023-01-19T09:15:45.020Z,16.60
2023-01-19T09:18:16.766Z,12.98
2023-01-19T09:20:44.906Z,12.32
2023-01-19T09:23:17.259Z,13.05
2023-01-19T09:25:46.308Z,12.50
2023-01-19T09:28:14.813Z,12.77
2023-01-19T09:30:43.076Z,13.02
2023-01-19T09:33:15.262Z,14.93
2023-01-19T09:35:43.609Z,14.90
2023-01-19T09:38:10.972Z,12.48
2023-01-19T09:40:56.412Z,11.95
2023-01-19T09:43:45.651Z,14.43
2023-01-19T09:46:17.453Z,12.23
2023-01-19T09:48:53.684Z,11.70
2023-01-19T09:51:26.066Z,13.32
2023-01-19T09:54:02.918Z,12.02
2023-01-19T09:58:58.043Z,14.57
2023-01-19T10:01:45.164Z,13.38
2023-01-19T10:04:31.154Z,14.35
2023-01-19T10:07:08.998Z,17.23
2023-01-19T10:09:47.708Z,11.40
2023-01-19T10:12:33.059Z,15.50
2023-01-19T10:15:14.715Z,12.02
2023-01-19T10:17:47.570Z,14.10
2023-01-19T10:20:24.202Z,15.30
2023-01-19T10:22:50.800Z,13.73
2023-01-19T10:25:24.579Z,13.75
2023-01-19T10:27:51.648Z,14.45
2023-01-19T10:30:28.816Z,13.90
2023-01-19T10:32:55.636Z,14.45
2023-01-19T10:35:25.438Z,15.98
2023-01-19T10:37:56.261Z,14.93
2023-01-19T10:40:33.330Z,14.80
2023-01-19T10:43:00.735Z,13.07
2023-01-19T10:45:31.628Z,14.10
2023-01-19T10:48:06.298Z,13.43
2023-01-19T10:50:39.882Z,11.57
2023-01-19T10:53:20.470Z,12.85
2023-01-19T10:55:47.134Z,13.55
2023-01-19T10:58:31.247Z,13.93
2023-01-19T11:01:13.924Z,14.73
2023-01-19T11:03:40.923Z,12.38
2023-01-19T11:06:13.849Z,13.00
2023-01-19T11:08:42.140Z,14.65
2023-01-19T11:11:09.807Z,13.57
2023-01-19T11:13:36.840Z,11.85
2023-01-19T11:16:12.624Z,12.30
2023-01-19T11:18:41.146Z,13.20
2023-01-19T11:21:09.677Z,12.50
2023-01-19T11:23:57.795Z,14.05
2023-01-19T11:26:33.871Z,11.82
2023-01-19T11:29:03.842Z,11.32
2023-01-19T11:31:34.536Z,12.20
2023-01-19T11:34:06.296Z,13.38
2023-01-19T11:36:35.408Z,11.68
2023-01-19T11:39:24.604Z,11.35
2023-01-19T11:41:58.181Z,13.55
2023-01-19T11:44:30.611Z,14.35
2023-01-19T11:47:00.996Z,12.70
2023-01-19T11:49:58.727Z,12.68
2023-01-19T11:52:36.030Z,13.63
2023-01-19T11:55:14.738Z,13.18
2023-01-19T11:57:54.573Z,13.00
2023-01-19T12:00:36.545Z,13.45
2023-01-19T12:03:13.543Z,12.73
2023-01-19T12:05:46.702Z,14.38
2023-01-19T12:08:23.936Z,11.27
2023-01-19T12:10:52.952Z,12.15
2023-01-19T12:13:24.994Z,11.55
2023-01-19T12:15:57.820Z,10.82
2023-01-19T12:18:30.565Z,10.38
2023-01-19T12:20:58.873Z,12.25
2023-01-19T12:23:48.498Z,10.82
2023-01-19T12:26:27.767Z,10.07
2023-01-19T12:28:58.692Z,10.88
2023-01-19T12:31:25.695Z,12.30
2023-01-19T12:33:52.865Z,12.15
2023-01-19T12:36:37.533Z,12.02
2023-01-19T12:39:23.742Z,11.93
2023-01-19T12:42:07.594Z,13.88
2023-01-19T12:44:34.835Z,13.05
2023-01-19T12:47:24.565Z,14.18
2023-01-19T12:49:55.265Z,11.52
2023-01-19T12:52:28.795Z,12.32
2023-01-19T12:55:16.182Z,13.43
2023-01-19T12:57:48.909Z,11.38
2023-01-19T13:00:21.684Z,10.85
2023-01-19T13:02:56.430Z,10.70
2023-01-19T13:05:23.442Z,12.35
2023-01-19T13:11:02.712Z,10.15
2023-01-19T13:13:37.325Z,9.35
2023-01-19T13:16:20.160Z,9.20
2023-01-19T13:18:57.103Z,8.68
2023-01-19T13:23:56.893Z,8.63
2023-01-19T13:26:34.066Z,9.38
2023-01-19T13:29:27.496Z,11.63
2023-01-19T13:32:02.558Z,10.85
2023-01-19T13:34:33.929Z,11.18
2023-01-19T13:37:01.967Z,11.80
2023-01-19T13:39:32.440Z,11.18
2023-01-19T13:42:05.628Z,9.68
2023-01-19T13:44:43.757Z,14.10
2023-01-19T13:47:30.992Z,11.30
2023-01-19T13:49:58.564Z,12.95
2023-01-19T13:52:28.458Z,9.93
2023-01-19T13:55:03.343Z,9.38
2023-01-19T13:57:33.956Z,9.05
2023-01-19T14:00:17.211Z,8.85
2023-01-19T14:03:00.510Z,7.13
2023-01-19T14:05:34.330Z,7.93
2023-01-19T14:08:06.873Z,7.55
2023-01-19T14:10:35.578Z,8.02
2023-01-19T14:13:25.124Z,8.63
2023-01-19T14:15:55.542Z,8.95
2023-01-19T14:18:31.794Z,8.27
2023-01-19T14:21:03.311Z,8.50
2023-01-19T14:23:50.232Z,7.10
2023-01-19T14:26:48.237Z,8.55
2023-01-19T14:29:17.844Z,9.73
2023-01-19T14:31:48.691Z,8.52
2023-01-19T14:34:35.790Z,8.35
2023-01-19T14:39:35.263Z,9.75
2023-01-19T14:42:05.225Z,8.15
2023-01-19T14:44:35.822Z,9.43
2023-01-19T14:47:04.436Z,8.75
2023-01-19T14:49:35.564Z,9.13
2023-01-19T14:52:23.942Z,8.70
2023-01-19T14:54:51.189Z,9.27
2023-01-19T14:59:50.599Z,8.30
2023-01-19T15:02:20.789Z,9.20
2023-01-19T15:04:55.322Z,9.38
2023-01-19T15:07:25.149Z,9.50
2023-01-19T15:09:51.893Z,8.45
2023-01-19T15:12:19.286Z,9.18
2023-01-19T15:14:46.157Z,8.88
2023-01-19T15:17:17.652Z,9.77
2023-01-19T15:19:46.462Z,9.50
2023-01-19T15:22:16.264Z,8.15
2023-01-19T15:24:43.160Z,8.43
2023-01-19T15:27:12.505Z,9.00
2023-01-19T15:29:42.559Z,9.43
2023-01-19T15:32:13.993Z,8.05
2023-01-19T15:34:42.751Z,9.27
2023-01-19T15:37:11.883Z,8.85
2023-01-19T15:39:39.761Z,7.82
2023-01-19T15:42:12.490Z,8.23
2023-01-19T15:44:39.289Z,6.97
2023-01-19T15:47:06.145Z,6.95
2023-01-19T15:49:33.379Z,7.43
2023-01-19T15:52:03.198Z,5.97
2023-01-19T15:54:30.655Z,5.85
2023-01-19T15:56:57.200Z,5.82
2023-01-19T15:59:26.235Z,4.63
2023-01-19T16:01:52.941Z,5.07
2023-01-19T16:04:20.586Z,5.10
2023-01-19T16:06:47.318Z,4.53
2023-01-19T16:09:18.633Z,6.40
2023-01-19T16:11:46.164Z,5.65
2023-01-19T16:14:12.606Z,5.18
2023-01-19T16:16:39.404Z,5.80
2023-01-19T16:19:05.883Z,6.07
2023-01-19T16:21:32.513Z,5.90
2023-01-19T16:23:59.389Z,18.60
2023-01-19T16:26:34.762Z,15.43
2023-01-19T16:29:08.628Z,10.88
2023-01-19T16:31:42.789Z,8.23
2023-01-19T16:34:09.869Z,7.00
2023-01-19T16:39:06.927Z,7.35
2023-01-19T16:41:35.124Z,7.75
2023-01-19T16:44:01.974Z,7.40
2023-01-19T16:46:34.008Z,7.13
2023-01-19T16:49:04.851Z,6.13
2023-01-19T16:51:32.011Z,5.20
2023-01-19T16:53:59.452Z,5.53
2023-01-19T16:56:25.916Z,6.93
2023-01-19T16:58:56.505Z,6.68
2023-01-19T17:01:24.732Z,5.95
2023-01-19T17:03:53.890Z,7.78
2023-01-19T17:06:22.872Z,10.95
2023-01-19T17:08:50.869Z,9.70
2023-01-19T17:11:26.841Z,7.60
2023-01-19T17:14:00.150Z,6.20
2023-01-19T17:16:28.444Z,5.20
2023-01-19T17:18:57.681Z,3.63
2023-01-19T17:21:24.898Z,3.53
2023-01-19T17:23:55.704Z,3.40
2023-01-19T17:26:25.309Z,3.38
2023-01-19T17:28:52.300Z,3.03
2023-01-19T17:31:22.098Z,2.97
2023-01-19T17:33:50.173Z,3.25
2023-01-19T17:36:22.495Z,3.13
2023-01-19T17:38:50.685Z,4.10
2023-01-19T17:41:45.911Z,4.57
2023-01-19T17:44:12.602Z,4.35
2023-01-19T17:46:39.193Z,5.20
2023-01-19T17:49:07.206Z,4.15
2023-01-19T17:51:34.164Z,4.25
2023-01-19T17:58:57.782Z,3.20
2023-01-19T18:01:30.534Z,3.30
2023-01-19T18:03:58.624Z,3.10
2023-01-19T18:06:25.663Z,3.08
2023-01-19T18:08:52.635Z,3.20
2023-01-19T18:13:50.679Z,2.80
2023-01-19T18:16:26.375Z,2.90
2023-01-19T18:18:54.761Z,2.67
2023-01-19T18:21:23.808Z,3.08
2023-01-19T18:23:51.338Z,2.50
2023-01-19T18:26:20.967Z,2.63
2023-01-19T18:28:48.895Z,2.13
2023-01-19T18:31:17.965Z,2.45
2023-01-19T18:33:45.119Z,1.80
2023-01-19T18:36:11.602Z,2.28
2023-01-19T18:38:39.046Z,2.35
2023-01-19T18:41:08.600Z,2.58
2023-01-19T18:43:37.744Z,2.58
2023-01-19T18:46:05.094Z,2.53
2023-01-19T18:48:31.825Z,3.50
2023-01-19T18:51:04.344Z,3.47
2023-01-19T18:53:32.014Z,2.72
2023-01-19T18:56:01.872Z,4.13
2023-01-19T18:58:29.907Z,3.28
2023-01-19T19:00:56.632Z,3.30
2023-01-19T19:03:23.689Z,5.35
2023-01-19T19:10:44.533Z,4.10
2023-01-19T19:13:15.998Z,2.80
2023-01-19T19:15:44.461Z,3.03
2023-01-19T19:18:13.613Z,3.08
2023-01-19T19:20:42.191Z,3.00
2023-01-19T19:23:09.748Z,2.60
2023-01-19T19:25:37.545Z,3.30
2023-01-19T19:28:04.612Z,3.17
2023-01-19T19:33:01.021Z,2.53
2023-01-19T19:35:28.384Z,2.90
2023-01-19T19:40:28.120Z,3.63
2023-01-19T19:42:58.355Z,4.88
2023-01-19T19:45:25.627Z,4.85
2023-01-19T19:47:52.342Z,4.00
2023-01-19T19:50:20.534Z,3.28
2023-01-19T19:52:47.077Z,3.90
2023-01-19T19:55:13.920Z,3.40
2023-01-19T19:57:40.426Z,3.20
2023-01-19T20:00:08.414Z,3.17
2023-01-19T20:02:37.823Z,4.00
2023-01-19T20:05:07.611Z,3.17
2023-01-19T20:07:34.473Z,3.97
2023-01-19T20:10:01.131Z,2.47
2023-01-19T20:12:27.816Z,2.33
2023-01-19T20:14:54.684Z,2.20
2023-01-19T20:17:21.492Z,2.47
2023-01-19T20:19:49.107Z,2.53
2023-01-19T20:22:15.866Z,2.30
2023-01-19T20:24:42.657Z,2.33
2023-01-19T20:27:09.942Z,2.40
2023-01-19T20:29:36.552Z,2.45
2023-01-19T20:32:03.367Z,2.88
2023-01-19T20:34:33.365Z,2.80
2023-01-19T20:37:01.599Z,4.20
2023-01-19T20:39:30.033Z,5.20
2023-01-19T20:41:56.875Z,4.97
2023-01-19T20:44:25.105Z,4.70
2023-01-19T20:46:52.622Z,3.28
2023-01-19T20:49:19.712Z,2.53
2023-01-19T20:54:16.646Z,1.80
2023-01-19T20:56:44.725Z,2.10
2023-01-19T20:59:12.235Z,1.67
2023-01-19T21:01:43.086Z,1.73
2023-01-19T21:04:11.484Z,1.95
2023-01-19T21:06:38.642Z,2.00
2023-01-19T21:09:08.989Z,2.00
2023-01-19T21:11:36.936Z,1.85
2023-01-19T21:14:04.658Z,2.40
2023-01-19T21:16:33.980Z,1.60
2023-01-19T21:19:03.199Z,1.52
2023-01-19T21:21:31.905Z,1.70
2023-01-19T21:24:03.376Z,1.83
2023-01-19T21:26:30.470Z,2.28
2023-01-19T21:28:58.567Z,1.60
2023-01-19T21:31:27.794Z,2.33
2023-01-19T21:33:56.691Z,2.35
2023-01-19T21:36:24.608Z,1.80
2023-01-19T21:38:55.562Z,1.60
2023-01-19T21:41:22.619Z,1.45
2023-01-19T21:43:49.499Z,1.45
2023-01-19T21:46:21.839Z,1.52
2023-01-19T21:48:48.666Z,1.50
2023-01-19T21:51:17.807Z,1.48
2023-01-19T21:53:44.761Z,1.30
2023-01-19T21:56:11.714Z,1.45
2023-01-19T21:58:38.739Z,1.63
2023-01-19T22:01:13.654Z,1.50
2023-01-19T22:03:40.861Z,1.52
2023-01-19T22:08:35.885Z,1.20
2023-01-19T22:11:06.883Z,1.40
2023-01-19T22:13:35.430Z,1.30
2023-01-19T22:16:03.696Z,1.38
2023-01-19T22:18:30.284Z,1.30
2023-01-19T22:21:06.334Z,1.38
2023-01-19T22:23:32.805Z,1.27
2023-01-19T22:26:00.147Z,1.15
2023-01-19T22:28:26.752Z,1.30
2023-01-19T22:30:53.820Z,1.60
2023-01-19T22:35:46.812Z,1.55
2023-01-19T22:38:13.565Z,1.20
2023-01-19T22:40:45.302Z,1.08
2023-01-19T22:43:12.427Z,1.40
2023-01-19T22:45:42.924Z,1.30
2023-01-19T22:48:09.740Z,1.20
2023-01-19T22:50:36.266Z,1.63
2023-01-19T22:53:02.733Z,1.45
2023-01-19T22:55:30.628Z,1.10
2023-01-19T22:57:57.244Z,1.45
2023-01-19T23:00:23.858Z,1.08
2023-01-19T23:02:50.307Z,1.40
2023-01-19T23:05:17.261Z,1.23
2023-01-19T23:07:44.089Z,1.20
2023-01-19T23:10:11.080Z,1.42
2023-01-19T23:15:04.987Z,1.42
2023-01-19T23:17:31.512Z,1.10
2023-01-19T23:19:57.985Z,1.50
2023-01-19T23:22:24.876Z,1.17
2023-01-19T23:24:51.395Z,1.40
2023-01-19T23:27:17.849Z,1.48
2023-01-19T23:29:44.695Z,1.60
2023-01-19T23:32:11.129Z,1.67
2023-01-19T23:34:37.669Z,1.88
2023-01-19T23:37:04.438Z,1.40
2023-01-19T23:39:31.149Z,1.90
2023-01-19T23:41:57.675Z,2.03
2023-01-19T23:44:24.525Z,1.70
2023-01-19T23:46:51.031Z,2.05
2023-01-19T23:49:18.209Z,2.30
2023-01-19T23:51:45.399Z,1.88
2023-01-19T23:54:12.490Z,1.67
2023-01-19T23:56:42.422Z,2.38
2023-01-19T23:59:12.561Z,2.20
